Time;durP1;ratioP1;P1;durP2;ratioP2;P2;SDS_P1;SDS_P2;PMS_P1;PMS_P2;Temp;Humidity;BMP_temperature;BMP_pressure;BME280_temperature;BME280_humidity;BME280_pressure;Samples;Min_cycle;Max_cycle;Signal;HPM_P1;HPM_P2
2022/11/25 00:01:21;;;;;;;;;;;6.50;96.60;;;;;;5082828;28;19932;-78
2022/11/25 00:03:49;;;;;;;;;;;6.50;96.70;;;;;;5081603;28;19927;-78
2022/11/25 00:06:17;;;;;;;;;;;6.40;96.60;;;;;;5084072;28;19932;-77
2022/11/25 00:08:44;;;;;;;;;;;6.40;96.70;;;;;;5080999;28;20748;-78
2022/11/25 00:11:12;;;;;;;;;;;6.50;96.70;;;;;;5081034;28;20643;-78
2022/11/25 00:13:39;;;;;;;;;;;6.40;96.70;;;;;;5081543;28;20306;-78
2022/11/25 00:16:06;;;;;;;;;;;6.40;96.70;;;;;;5073806;28;19928;-78
2022/11/25 00:18:33;;;;;;;;;;;6.40;96.70;;;;;;5082153;28;19939;-78
2022/11/25 00:21:04;;;;;;;;;;;6.40;96.70;;;;;;5074806;28;19935;-78
2022/11/25 00:23:31;;;;;;;;;;;6.30;96.70;;;;;;5077348;28;19932;-78
2022/11/25 00:25:57;;;;;;;;;;;6.30;96.70;;;;;;5079621;28;19935;-78
2022/11/25 00:28:24;;;;;;;;;;;6.30;96.80;;;;;;5079278;28;19932;-78
2022/11/25 00:30:50;;;;;;;;;;;6.30;96.80;;;;;;5080115;28;19928;-78
2022/11/25 00:33:17;;;;;;;;;;;6.30;96.80;;;;;;5082527;28;19928;-78
2022/11/25 00:35:43;;;;;;;;;;;6.30;96.80;;;;;;5082170;28;20429;-78
2022/11/25 00:38:11;;;;;;;;;;;6.30;96.80;;;;;;5081063;28;20667;-78
2022/11/25 00:40:38;;;;;;;;;;;6.30;96.80;;;;;;5081624;28;20799;-77
2022/11/25 00:45:49;;;;;;;;;;;6.20;96.80;;;;;;5075017;28;20114;-77
2022/11/25 00:48:15;;;;;;;;;;;6.20;96.80;;;;;;5080622;28;20168;-78
2022/11/25 00:50:42;;;;;;;;;;;6.20;96.80;;;;;;5079376;28;20647;-78
2022/11/25 00:53:09;;;;;;;;;;;6.20;96.90;;;;;;5076715;28;19935;-78
2022/11/25 00:58:17;;;;;;;;;;;6.20;96.90;;;;;;5078492;28;19928;-78
2022/11/25 01:00:44;;;;;;;;;;;6.10;96.90;;;;;;5079867;28;20215;-78
2022/11/25 01:03:10;;;;;;;;;;;6.20;97.00;;;;;;5075166;28;19929;-78
2022/11/25 01:05:37;;;;;;;;;;;6.10;97.00;;;;;;5080243;28;19932;-78
2022/11/25 01:08:04;;;;;;;;;;;6.10;97.00;;;;;;5076761;28;19935;-78
2022/11/25 01:10:30;;;;;;;;;;;6.10;97.00;;;;;;5079207;28;19955;-77
2022/11/25 01:12:58;;;;;;;;;;;6.10;97.00;;;;;;5083773;28;19935;-77
2022/11/25 01:15:25;;;;;;;;;;;6.10;97.00;;;;;;5081022;28;19932;-78
2022/11/25 01:17:51;;;;;;;;;;;6.10;97.00;;;;;;5073757;28;19939;-78
2022/11/25 01:20:18;;;;;;;;;;;6.10;97.10;;;;;;5080700;28;19928;-77
2022/11/25 01:22:44;;;;;;;;;;;6.00;97.00;;;;;;5075858;28;19935;-78
2022/11/25 01:25:11;;;;;;;;;;;6.00;97.10;;;;;;5082408;28;19932;-78
2022/11/25 01:27:41;;;;;;;;;;;6.00;97.10;;;;;;5077548;28;19928;-78
2022/11/25 01:30:10;;;;;;;;;;;6.00;97.10;;;;;;5078760;28;20020;-78
2022/11/25 01:32:37;;;;;;;;;;;6.00;97.10;;;;;;5075109;28;20050;-78
2022/11/25 01:35:04;;;;;;;;;;;6.00;97.10;;;;;;5082797;28;19928;-78
2022/11/25 01:37:30;;;;;;;;;;;6.00;97.20;;;;;;5081487;28;20391;-78
2022/11/25 01:39:57;;;;;;;;;;;6.00;97.20;;;;;;5075836;28;20511;-78
2022/11/25 01:42:27;;;;;;;;;;;6.00;97.20;;;;;;5075629;28;20415;-78
2022/11/25 01:45:12;;;;;;;;;;;6.00;97.20;;;;;;5077083;28;20289;-77
2022/11/25 01:47:40;;;;;;;;;;;6.00;97.20;;;;;;5053691;28;19935;-78
2022/11/25 01:50:10;;;;;;;;;;;5.90;97.20;;;;;;5054213;28;19929;-78
2022/11/25 01:52:39;;;;;;;;;;;5.90;97.30;;;;;;5054278;28;19929;-78
2022/11/25 01:55:09;;;;;;;;;;;5.90;97.30;;;;;;5054325;28;19934;-78
2022/11/25 01:57:44;;;;;;;;;;;5.90;97.30;;;;;;5054479;28;19951;-78
2022/11/25 02:00:11;;;;;;;;;;;5.90;97.30;;;;;;5047333;28;19929;-78
2022/11/25 02:02:38;;;;;;;;;;;5.90;97.30;;;;;;5080886;28;20387;-78
2022/11/25 02:05:08;;;;;;;;;;;5.90;97.30;;;;;;5073779;28;19933;-78
2022/11/25 02:07:36;;;;;;;;;;;5.90;97.30;;;;;;5079482;28;20027;-78
2022/11/25 02:10:04;;;;;;;;;;;5.90;97.40;;;;;;5075188;28;19935;-78
2022/11/25 02:12:32;;;;;;;;;;;5.90;97.40;;;;;;5087743;28;19928;-77
2022/11/25 02:14:59;;;;;;;;;;;5.90;97.40;;;;;;5081969;28;19932;-77
2022/11/25 02:17:25;;;;;;;;;;;5.90;97.80;;;;;;5083614;28;19928;-77
2022/11/25 02:19:58;;;;;;;;;;;5.90;97.40;;;;;;5075751;28;20011;-78
2022/11/25 02:22:30;;;;;;;;;;;5.80;97.40;;;;;;5081252;28;20318;-78
2022/11/25 02:25:01;;;;;;;;;;;5.90;97.50;;;;;;5078887;28;19935;-77
2022/11/25 02:27:29;;;;;;;;;;;5.80;97.80;;;;;;5080019;28;20015;-78
2022/11/25 02:29:56;;;;;;;;;;;5.90;97.50;;;;;;5104996;28;20584;-78
2022/11/25 02:32:23;;;;;;;;;;;5.80;97.50;;;;;;5102242;28;20789;-78
2022/11/25 02:34:49;;;;;;;;;;;5.80;97.50;;;;;;5103819;28;20022;-78
2022/11/25 02:37:17;;;;;;;;;;;5.80;97.50;;;;;;5102706;28;19935;-78
2022/11/25 02:39:44;;;;;;;;;;;5.80;97.50;;;;;;5104658;28;19934;-77
2022/11/25 02:42:11;;;;;;;;;;;5.70;97.40;;;;;;5100956;28;19939;-78
2022/11/25 02:44:39;;;;;;;;;;;5.80;97.50;;;;;;5098628;28;19928;-78
2022/11/25 02:47:05;;;;;;;;;;;5.80;97.50;;;;;;5102651;28;19928;-78
2022/11/25 02:49:32;;;;;;;;;;;5.80;97.50;;;;;;5095146;28;19928;-77
2022/11/25 02:51:58;;;;;;;;;;;5.80;97.50;;;;;;5093116;28;19931;-78
2022/11/25 02:54:25;;;;;;;;;;;5.80;97.50;;;;;;5098440;28;19954;-77
2022/11/25 02:56:51;;;;;;;;;;;5.80;97.50;;;;;;5101040;28;20499;-78
2022/11/25 02:59:18;;;;;;;;;;;5.70;97.50;;;;;;5099321;28;19951;-78
2022/11/25 03:01:46;;;;;;;;;;;5.80;97.50;;;;;;5096066;28;20330;-78
2022/11/25 03:04:12;;;;;;;;;;;5.80;97.60;;;;;;5101621;28;20584;-79
2022/11/25 03:06:39;;;;;;;;;;;5.70;97.50;;;;;;5095076;28;20474;-77
2022/11/25 03:09:06;;;;;;;;;;;5.70;97.50;;;;;;5105256;28;19935;-78
2022/11/25 03:14:16;;;;;;;;;;;5.70;97.50;;;;;;5099735;28;19949;-78
2022/11/25 03:16:43;;;;;;;;;;;5.70;97.60;;;;;;5102282;28;20470;-78
2022/11/25 03:19:11;;;;;;;;;;;5.70;97.60;;;;;;5095680;28;19935;-78
2022/11/25 03:21:37;;;;;;;;;;;5.70;97.60;;;;;;5100217;28;19928;-78
2022/11/25 03:24:04;;;;;;;;;;;5.70;97.60;;;;;;5096841;28;19928;-78
2022/11/25 03:26:31;;;;;;;;;;;5.70;97.60;;;;;;5098694;28;19985;-78
2022/11/25 03:28:57;;;;;;;;;;;5.70;97.60;;;;;;5103411;28;19934;-78
2022/11/25 03:31:24;;;;;;;;;;;5.70;97.70;;;;;;5098425;28;19932;-78
2022/11/25 03:33:50;;;;;;;;;;;5.70;97.70;;;;;;5099069;28;19928;-79
2022/11/25 03:36:19;;;;;;;;;;;5.60;97.70;;;;;;5103733;28;19935;-78
2022/11/25 03:38:46;;;;;;;;;;;5.70;97.70;;;;;;5098517;28;19927;-78
2022/11/25 03:41:12;;;;;;;;;;;5.60;97.70;;;;;;5097411;28;19932;-78
2022/11/25 03:43:39;;;;;;;;;;;5.60;97.70;;;;;;5106648;28;19928;-78
2022/11/25 03:46:05;;;;;;;;;;;5.60;97.70;;;;;;5095236;27;19927;-78
2022/11/25 03:48:32;;;;;;;;;;;5.60;97.70;;;;;;5099840;28;19928;-78
2022/11/25 03:50:58;;;;;;;;;;;5.60;97.70;;;;;;5103526;28;19931;-77
2022/11/25 03:53:26;;;;;;;;;;;5.60;97.70;;;;;;5103972;28;19931;-77
2022/11/25 03:55:53;;;;;;;;;;;5.60;97.70;;;;;;5101872;28;19931;-78
2022/11/25 03:58:19;;;;;;;;;;;5.60;97.80;;;;;;5098823;28;19935;-78
2022/11/25 04:00:46;;;;;;;;;;;5.60;97.70;;;;;;5098742;28;19943;-78
2022/11/25 04:03:12;;;;;;;;;;;5.60;97.80;;;;;;5100499;28;19928;-78
2022/11/25 04:05:39;;;;;;;;;;;5.60;97.80;;;;;;5104083;28;19928;-78
2022/11/25 04:08:06;;;;;;;;;;;5.60;97.80;;;;;;5105482;28;19934;-78
2022/11/25 04:10:33;;;;;;;;;;;5.60;97.80;;;;;;5100690;28;20014;-77
2022/11/25 04:12:59;;;;;;;;;;;5.50;97.80;;;;;;5102569;28;20413;-78
2022/11/25 04:15:26;;;;;;;;;;;5.60;97.80;;;;;;5103346;28;19924;-78
2022/11/25 04:17:52;;;;;;;;;;;5.50;97.80;;;;;;5102140;28;19927;-78
2022/11/25 04:20:19;;;;;;;;;;;5.60;98.10;;;;;;5099221;28;19931;-78
2022/11/25 04:22:45;;;;;;;;;;;5.50;97.80;;;;;;5098838;28;19931;-78
2022/11/25 04:25:12;;;;;;;;;;;5.50;97.80;;;;;;5099083;28;19928;-78
2022/11/25 04:27:40;;;;;;;;;;;5.50;97.80;;;;;;5097217;28;19932;-78
2022/11/25 04:30:07;;;;;;;;;;;5.50;97.80;;;;;;5083185;28;19928;-78
2022/11/25 04:32:34;;;;;;;;;;;5.50;97.80;;;;;;5082871;28;19928;-78
2022/11/25 04:35:00;;;;;;;;;;;5.50;97.80;;;;;;5075388;28;19935;-78
2022/11/25 04:37:27;;;;;;;;;;;5.50;97.80;;;;;;5079147;28;19950;-78
2022/11/25 04:39:53;;;;;;;;;;;5.50;97.80;;;;;;5076504;28;20323;-77
2022/11/25 04:42:33;;;;;;;;;;;5.40;97.80;;;;;;5074752;28;20296;-78
2022/11/25 04:45:01;;;;;;;;;;;5.40;97.80;;;;;;5081900;28;20423;-78
2022/11/25 04:47:28;;;;;;;;;;;5.40;97.80;;;;;;5072697;28;20055;-78
2022/11/25 04:49:55;;;;;;;;;;;5.40;97.80;;;;;;5072897;28;20161;-77
2022/11/25 04:52:21;;;;;;;;;;;5.40;97.80;;;;;;5074741;28;19960;-78
2022/11/25 04:54:48;;;;;;;;;;;5.40;97.80;;;;;;5077446;28;19939;-78
2022/11/25 04:57:14;;;;;;;;;;;5.40;97.80;;;;;;5074426;28;19928;-78
2022/11/25 04:59:41;;;;;;;;;;;5.40;97.80;;;;;;5075040;28;19936;-77
2022/11/25 05:02:12;;;;;;;;;;;5.40;97.80;;;;;;5073786;28;19928;-78
2022/11/25 05:04:39;;;;;;;;;;;5.40;97.80;;;;;;5075616;28;19928;-78
2022/11/25 05:07:06;;;;;;;;;;;5.40;97.80;;;;;;5077679;28;19929;-77
2022/11/25 05:09:33;;;;;;;;;;;5.40;97.80;;;;;;5081843;28;19935;-78
2022/11/25 05:11:59;;;;;;;;;;;5.30;97.80;;;;;;5077772;28;19928;-78
2022/11/25 05:14:26;;;;;;;;;;;5.30;97.80;;;;;;5079018;28;19939;-78
2022/11/25 05:16:52;;;;;;;;;;;5.40;97.90;;;;;;5068784;28;19928;-78
2022/11/25 05:19:19;;;;;;;;;;;5.30;97.80;;;;;;5077344;28;19932;-78
2022/11/25 05:21:47;;;;;;;;;;;5.30;97.80;;;;;;5079899;28;19928;-78
2022/11/25 05:24:13;;;;;;;;;;;5.30;97.70;;;;;;5078207;28;19935;-77
2022/11/25 05:26:40;;;;;;;;;;;5.20;97.30;;;;;;5075575;28;19939;-77
2022/11/25 05:29:06;;;;;;;;;;;5.20;97.40;;;;;;5093461;28;19934;-78
2022/11/25 05:31:33;;;;;;;;;;;5.20;97.60;;;;;;5102102;28;19931;-78
2022/11/25 05:34:00;;;;;;;;;;;5.20;97.60;;;;;;5101595;28;19928;-78
2022/11/25 05:36:26;;;;;;;;;;;5.10;97.70;;;;;;5105016;28;20314;-78
2022/11/25 05:38:55;;;;;;;;;;;5.10;97.70;;;;;;5107633;28;20294;-79
2022/11/25 05:41:22;;;;;;;;;;;5.10;97.70;;;;;;5104383;28;19928;-79
2022/11/25 05:43:48;;;;;;;;;;;5.10;97.70;;;;;;5105148;28;19927;-79
2022/11/25 05:46:15;;;;;;;;;;;5.10;97.70;;;;;;5100011;28;19928;-78
2022/11/25 05:48:41;;;;;;;;;;;5.10;97.70;;;;;;5102332;28;20378;-79
2022/11/25 05:51:08;;;;;;;;;;;5.10;97.70;;;;;;5097211;28;19928;-79
2022/11/25 05:53:36;;;;;;;;;;;5.10;97.70;;;;;;5098212;28;19982;-78
2022/11/25 05:56:05;;;;;;;;;;;5.10;97.70;;;;;;5101674;28;19931;-78
2022/11/25 05:58:32;;;;;;;;;;;4.90;97.80;;;;;;5104203;28;20288;-78
2022/11/25 06:00:59;;;;;;;;;;;5.10;97.60;;;;;;5100540;28;19943;-79
2022/11/25 06:03:26;;;;;;;;;;;5.10;97.60;;;;;;5110481;28;19931;-78
2022/11/25 06:05:53;;;;;;;;;;;5.00;97.80;;;;;;5109872;28;19932;-79
2022/11/25 06:08:19;;;;;;;;;;;5.00;99.90;;;;;;5111070;28;19932;-78
2022/11/25 06:10:46;;;;;;;;;;;5.10;99.90;;;;;;5110905;28;19935;-78
2022/11/25 06:13:14;;;;;;;;;;;5.00;97.50;;;;;;5108827;28;19928;-78
2022/11/25 06:15:41;;;;;;;;;;;5.20;99.90;;;;;;5108574;28;19934;-78
2022/11/25 06:18:08;;;;;;;;;;;;;;;;;;5110567;28;19928;-77
2022/11/25 06:20:34;;;;;;;;;;;5.00;97.40;;;;;;5108001;28;20494;-78
2022/11/25 06:23:01;;;;;;;;;;;5.10;97.80;;;;;;5095554;28;19927;-78
2022/11/25 06:25:27;;;;;;;;;;;5.00;97.80;;;;;;5107463;28;19928;-78
2022/11/25 06:27:54;;;;;;;;;;;5.10;97.80;;;;;;5111864;28;20391;-79
2022/11/25 06:30:22;;;;;;;;;;;5.10;97.90;;;;;;5106229;28;20534;-79
2022/11/25 06:32:48;;;;;;;;;;;5.00;97.90;;;;;;5109761;28;19935;-79
2022/11/25 06:35:15;;;;;;;;;;;5.10;97.90;;;;;;5110698;28;19928;-78
2022/11/25 06:37:41;;;;;;;;;;;5.10;97.90;;;;;;5111660;28;20284;-78
2022/11/25 06:40:08;;;;;;;;;;;5.10;97.90;;;;;;5107259;28;19927;-79
2022/11/25 06:42:37;;;;;;;;;;;5.10;97.90;;;;;;5109734;28;19931;-79
2022/11/25 06:45:04;;;;;;;;;;;5.00;97.90;;;;;;5111542;28;19927;-79
2022/11/25 06:47:32;;;;;;;;;;;5.10;97.90;;;;;;5111733;28;19935;-78
2022/11/25 06:49:58;;;;;;;;;;;5.10;98.00;;;;;;5112380;28;19932;-78
2022/11/25 06:52:25;;;;;;;;;;;5.10;98.00;;;;;;5110973;28;19927;-78
2022/11/25 06:54:52;;;;;;;;;;;5.10;98.00;;;;;;5103546;28;20337;-77
2022/11/25 06:57:19;;;;;;;;;;;5.10;98.00;;;;;;5105320;28;19928;-78
2022/11/25 06:59:45;;;;;;;;;;;5.10;98.00;;;;;;5099311;28;19932;-78
2022/11/25 07:02:12;;;;;;;;;;;5.10;98.00;;;;;;5107738;28;20273;-78
2022/11/25 07:04:40;;;;;;;;;;;5.10;98.00;;;;;;5109295;28;20353;-79
2022/11/25 07:07:07;;;;;;;;;;;5.10;98.00;;;;;;5109820;28;19928;-78
2022/11/25 07:09:33;;;;;;;;;;;5.10;98.10;;;;;;5109817;28;20351;-78
2022/11/25 07:12:00;;;;;;;;;;;5.10;98.10;;;;;;5111605;28;19927;-78
2022/11/25 07:14:26;;;;;;;;;;;5.10;98.10;;;;;;5107755;27;19935;-78
2022/11/25 07:16:53;;;;;;;;;;;5.10;98.10;;;;;;5110034;28;19934;-77
2022/11/25 07:19:20;;;;;;;;;;;5.10;98.10;;;;;;5108638;28;19928;-78
2022/11/25 07:21:47;;;;;;;;;;;5.10;98.10;;;;;;5109343;28;20520;-78
2022/11/25 07:24:15;;;;;;;;;;;5.10;98.10;;;;;;5111348;28;19954;-78
2022/11/25 07:26:42;;;;;;;;;;;5.10;98.10;;;;;;5110615;28;20015;-77
2022/11/25 07:29:10;;;;;;;;;;;5.10;98.00;;;;;;5108030;28;19928;-77
2022/11/25 07:31:37;;;;;;;;;;;5.20;98.10;;;;;;5103001;28;20473;-78
2022/11/25 07:34:04;;;;;;;;;;;5.20;98.10;;;;;;5109388;28;20022;-79
2022/11/25 07:36:31;;;;;;;;;;;5.20;98.10;;;;;;5110011;28;19927;-78
2022/11/25 07:39:00;;;;;;;;;;;5.20;98.20;;;;;;5103591;28;19931;-77
2022/11/25 07:41:27;;;;;;;;;;;5.20;97.90;;;;;;5106056;28;19935;-78
2022/11/25 07:43:55;;;;;;;;;;;5.20;98.20;;;;;;5105426;28;19928;-78
2022/11/25 07:46:23;;;;;;;;;;;5.20;98.20;;;;;;5109166;28;20410;-78
2022/11/25 07:48:50;;;;;;;;;;;5.20;98.20;;;;;;5107703;28;19927;-77
2022/11/25 07:51:17;;;;;;;;;;;5.20;98.20;;;;;;5111135;28;19931;-79
2022/11/25 07:53:44;;;;;;;;;;;5.20;98.20;;;;;;5108849;28;20337;-78
2022/11/25 07:56:12;;;;;;;;;;;5.20;98.20;;;;;;5111537;28;19927;-79
2022/11/25 07:58:38;;;;;;;;;;;5.20;98.20;;;;;;5110219;28;19948;-78
2022/11/25 08:01:06;;;;;;;;;;;5.20;98.20;;;;;;5106024;28;20343;-79
2022/11/25 08:03:33;;;;;;;;;;;5.20;98.20;;;;;;5107547;28;19958;-78
2022/11/25 08:06:00;;;;;;;;;;;5.20;98.30;;;;;;5098669;28;19931;-77
2022/11/25 08:08:26;;;;;;;;;;;5.20;98.30;;;;;;5105876;28;19942;-78
2022/11/25 08:10:53;;;;;;;;;;;5.20;98.20;;;;;;5108794;28;19928;-78
2022/11/25 08:13:21;;;;;;;;;;;5.20;98.30;;;;;;5104181;28;19939;-78
2022/11/25 08:15:47;;;;;;;;;;;5.30;98.30;;;;;;5106831;28;20436;-77
2022/11/25 08:18:14;;;;;;;;;;;5.20;98.30;;;;;;5105378;28;20109;-77
2022/11/25 08:20:40;;;;;;;;;;;5.20;98.30;;;;;;5102593;28;19928;-78
2022/11/25 08:23:07;;;;;;;;;;;5.30;98.30;;;;;;5102418;28;19928;-78
2022/11/25 08:25:38;;;;;;;;;;;5.30;98.30;;;;;;5104231;28;19935;-78
2022/11/25 08:28:05;;;;;;;;;;;5.30;98.30;;;;;;5102491;28;19928;-79
2022/11/25 08:30:33;;;;;;;;;;;5.30;98.30;;;;;;5089399;28;19939;-78
2022/11/25 08:32:59;;;;;;;;;;;5.30;98.20;;;;;;5089053;28;20424;-79
2022/11/25 08:35:26;;;;;;;;;;;5.30;98.20;;;;;;5088713;28;19932;-77
2022/11/25 08:37:52;;;;;;;;;;;5.30;98.20;;;;;;5087653;28;19927;-77
2022/11/25 08:40:19;;;;;;;;;;;5.30;98.20;;;;;;5081689;28;19932;-78
2022/11/25 08:42:46;;;;;;;;;;;5.30;98.20;;;;;;5084476;28;19924;-78
2022/11/25 08:45:12;;;;;;;;;;;5.30;98.20;;;;;;5086338;28;19939;-77
2022/11/25 08:47:40;;;;;;;;;;;5.40;98.50;;;;;;5086505;28;19928;-77
2022/11/25 08:50:07;;;;;;;;;;;5.40;98.20;;;;;;5089202;28;19932;-77
2022/11/25 08:52:34;;;;;;;;;;;5.40;98.20;;;;;;5089303;28;19932;-78
2022/11/25 08:55:00;;;;;;;;;;;5.40;98.20;;;;;;5088638;28;19930;-78
2022/11/25 08:57:27;;;;;;;;;;;5.40;98.20;;;;;;5085192;28;20410;-78
2022/11/25 08:59:54;;;;;;;;;;;5.40;98.20;;;;;;5087322;28;19938;-78
2022/11/25 09:02:20;;;;;;;;;;;5.40;98.20;;;;;;5080656;28;19929;-78
2022/11/25 09:04:48;;;;;;;;;;;5.50;98.20;;;;;;5084893;28;19940;-77
2022/11/25 09:07:14;;;;;;;;;;;5.40;98.20;;;;;;5086544;28;19928;-78
2022/11/25 09:09:41;;;;;;;;;;;5.50;98.20;;;;;;5087264;28;19943;-78
2022/11/25 09:12:08;;;;;;;;;;;5.50;98.20;;;;;;5081663;28;19927;-77
2022/11/25 09:14:34;;;;;;;;;;;5.50;98.20;;;;;;5087101;28;20509;-78
2022/11/25 09:17:02;;;;;;;;;;;5.50;98.20;;;;;;5084913;28;19981;-78
2022/11/25 09:19:29;;;;;;;;;;;5.50;98.20;;;;;;5078287;28;19951;-78
2022/11/25 09:21:56;;;;;;;;;;;5.50;98.10;;;;;;5085645;28;19932;-78
2022/11/25 09:24:23;;;;;;;;;;;5.50;98.10;;;;;;5088392;28;20345;-78
2022/11/25 09:26:50;;;;;;;;;;;5.50;98.10;;;;;;5083052;28;19928;-77
2022/11/25 09:29:16;;;;;;;;;;;5.60;98.10;;;;;;5098319;28;19927;-78
2022/11/25 09:31:43;;;;;;;;;;;5.50;98.10;;;;;;5104573;28;19943;-78
2022/11/25 09:34:09;;;;;;;;;;;5.60;98.10;;;;;;5104743;28;19939;-78
2022/11/25 09:36:36;;;;;;;;;;;5.60;98.20;;;;;;5105625;28;19927;-78
2022/11/25 09:39:04;;;;;;;;;;;5.60;98.20;;;;;;5105335;28;19935;-77
2022/11/25 09:47:19;;;;;;;;;;;5.60;98.60;;;;;;5103687;28;19991;-78
2022/11/25 09:49:57;;;;;;;;;;;5.70;98.80;;;;;;5107288;28;19928;-78
2022/11/25 09:52:30;;;;;;;;;;;5.70;98.90;;;;;;5105350;28;20657;-78
2022/11/25 09:55:02;;;;;;;;;;;5.80;99.00;;;;;;5106952;28;19934;-78
2022/11/25 09:57:30;;;;;;;;;;;5.70;99.00;;;;;;5103269;28;19928;-77
2022/11/25 10:00:01;;;;;;;;;;;5.70;99.10;;;;;;5093372;28;19939;-78
2022/11/25 10:02:29;;;;;;;;;;;5.80;99.10;;;;;;5101328;28;19995;-78
2022/11/25 10:05:01;;;;;;;;;;;5.80;99.10;;;;;;5106342;28;19928;-77
2022/11/25 10:07:32;;;;;;;;;;;5.80;99.10;;;;;;5108477;28;20394;-78
2022/11/25 10:10:01;;;;;;;;;;;5.90;99.20;;;;;;5106797;28;19932;-78
2022/11/25 10:12:30;;;;;;;;;;;5.90;99.20;;;;;;5114026;28;19931;-79
2022/11/25 10:14:59;;;;;;;;;;;5.90;99.30;;;;;;5103390;28;20382;-79
2022/11/25 10:17:31;;;;;;;;;;;5.90;99.40;;;;;;5109291;28;19934;-78
2022/11/25 10:20:00;;;;;;;;;;;6.00;99.50;;;;;;5098002;28;19928;-78
2022/11/25 10:22:28;;;;;;;;;;;6.00;99.60;;;;;;5107625;28;19928;-79
2022/11/25 10:24:57;;;;;;;;;;;6.00;99.70;;;;;;5109869;28;19928;-78
2022/11/25 10:27:28;;;;;;;;;;;6.00;99.80;;;;;;5104478;28;19928;-78
2022/11/25 10:29:59;;;;;;;;;;;6.00;99.80;;;;;;5108485;28;19932;-78
2022/11/25 10:32:27;;;;;;;;;;;6.10;99.80;;;;;;5110052;28;19935;-78
2022/11/25 10:34:57;;;;;;;;;;;6.10;99.80;;;;;;5105526;28;20535;-78
2022/11/25 10:37:26;;;;;;;;;;;6.10;99.80;;;;;;5103967;28;19971;-79
2022/11/25 10:39:53;;;;;;;;;;;6.10;99.90;;;;;;5109150;28;19931;-78
2022/11/25 10:42:20;;;;;;;;;;;6.10;99.90;;;;;;5101415;28;19928;-79
2022/11/25 10:44:48;;;;;;;;;;;6.20;99.90;;;;;;5108286;28;19935;-78
2022/11/25 10:47:22;;;;;;;;;;;6.20;99.90;;;;;;5101871;28;20022;-79
2022/11/25 10:49:55;;;;;;;;;;;6.20;99.90;;;;;;5104201;28;19935;-79
2022/11/25 10:52:22;;;;;;;;;;;6.20;99.90;;;;;;5105916;27;19928;-79
2022/11/25 10:54:55;;;;;;;;;;;6.20;99.90;;;;;;5109454;27;20402;-79
2022/11/25 10:57:26;;;;;;;;;;;6.30;99.90;;;;;;5111323;27;19931;-79
2022/11/25 10:59:56;;;;;;;;;;;6.30;99.90;;;;;;5108924;27;19928;-79
2022/11/25 11:02:25;;;;;;;;;;;6.30;99.90;;;;;;5096753;28;20418;-78
2022/11/25 11:04:54;;;;;;;;;;;6.40;99.90;;;;;;5110169;28;19934;-79
2022/11/25 11:07:20;;;;;;;;;;;6.30;99.90;;;;;;5108589;28;19928;-78
2022/11/25 11:09:47;;;;;;;;;;;6.40;99.90;;;;;;5110105;28;19934;-79
2022/11/25 11:12:17;;;;;;;;;;;6.40;99.90;;;;;;5109665;27;19928;-77
2022/11/25 11:14:43;;;;;;;;;;;6.50;99.90;;;;;;5112616;28;20006;-78
2022/11/25 11:17:24;;;;;;;;;;;6.50;99.90;;;;;;5111502;28;19924;-78
2022/11/25 11:20:00;;;;;;;;;;;6.50;99.90;;;;;;5099409;28;20739;-79
2022/11/25 11:22:26;;;;;;;;;;;6.50;99.90;;;;;;5110950;28;19935;-78
2022/11/25 11:25:04;;;;;;;;;;;6.50;99.90;;;;;;5106367;28;19928;-78
2022/11/25 11:27:35;;;;;;;;;;;6.60;99.90;;;;;;5108892;28;19932;-77
2022/11/25 11:30:07;;;;;;;;;;;6.60;99.90;;;;;;5083380;28;19932;-79
2022/11/25 11:32:35;;;;;;;;;;;6.60;99.90;;;;;;5067323;28;19928;-78
2022/11/25 11:35:05;;;;;;;;;;;6.60;99.90;;;;;;5065324;28;19928;-78
2022/11/25 11:37:42;;;;;;;;;;;6.70;99.90;;;;;;5070091;28;19937;-79
2022/11/25 11:40:18;;;;;;;;;;;6.60;99.90;;;;;;5068388;28;19929;-79
2022/11/25 11:42:52;;;;;;;;;;;6.70;99.90;;;;;;5065630;28;19933;-78
2022/11/25 11:45:27;;;;;;;;;;;6.70;99.90;;;;;;5065525;28;19967;-77
2022/11/25 11:48:00;;;;;;;;;;;6.70;99.90;;;;;;5065006;28;19977;-79
2022/11/25 11:50:29;;;;;;;;;;;6.80;99.90;;;;;;5064357;28;19935;-78
2022/11/25 11:52:58;;;;;;;;;;;6.80;99.90;;;;;;5067315;28;19929;-79
2022/11/25 11:55:34;;;;;;;;;;;6.80;99.90;;;;;;5059329;28;19930;-78
2022/11/25 11:58:04;;;;;;;;;;;6.80;99.90;;;;;;5069127;28;19935;-79
2022/11/25 12:00:33;;;;;;;;;;;6.80;99.90;;;;;;5061750;28;19928;-78
2022/11/25 12:03:05;;;;;;;;;;;6.80;99.90;;;;;;5067564;28;19975;-78
2022/11/25 12:05:34;;;;;;;;;;;6.90;99.90;;;;;;5066229;28;19975;-79
2022/11/25 12:08:05;;;;;;;;;;;6.90;99.90;;;;;;5065820;28;19928;-78
2022/11/25 12:10:34;;;;;;;;;;;6.90;99.90;;;;;;5069501;28;19932;-79
2022/11/25 12:13:05;;;;;;;;;;;6.90;99.90;;;;;;5074722;28;19932;-79
2022/11/25 12:15:37;;;;;;;;;;;6.90;99.90;;;;;;5065598;28;19933;-78
2022/11/25 12:18:10;;;;;;;;;;;7.00;99.90;;;;;;5061936;28;19935;-79
2022/11/25 12:20:42;;;;;;;;;;;7.00;99.90;;;;;;5059400;28;19940;-78
2022/11/25 12:23:11;;;;;;;;;;;7.00;99.90;;;;;;5058640;28;19999;-77
2022/11/25 12:25:40;;;;;;;;;;;7.00;99.80;;;;;;5063297;28;20054;-78
2022/11/25 12:28:08;;;;;;;;;;;7.00;99.80;;;;;;5065609;28;19939;-79
2022/11/25 12:30:38;;;;;;;;;;;7.00;99.80;;;;;;5067067;28;20015;-79
2022/11/25 12:33:10;;;;;;;;;;;7.10;99.90;;;;;;5067353;28;19929;-78
2022/11/25 12:35:43;;;;;;;;;;;7.10;99.90;;;;;;5069769;28;19929;-78
2022/11/25 12:38:14;;;;;;;;;;;7.10;99.90;;;;;;5066690;28;19928;-79
2022/11/25 12:40:44;;;;;;;;;;;7.10;99.90;;;;;;5065266;28;19936;-79
2022/11/25 12:43:23;;;;;;;;;;;7.20;99.90;;;;;;5068102;28;19935;-79
2022/11/25 12:45:55;;;;;;;;;;;7.20;99.90;;;;;;5074704;28;20741;-78
2022/11/25 12:48:23;;;;;;;;;;;7.20;99.90;;;;;;5084853;28;20367;-78
2022/11/25 12:50:54;;;;;;;;;;;7.20;99.90;;;;;;5079800;28;19928;-79
2022/11/25 12:53:27;;;;;;;;;;;7.30;99.90;;;;;;5077778;28;20470;-79
2022/11/25 12:55:54;;;;;;;;;;;7.30;99.90;;;;;;5082160;28;20574;-78
2022/11/25 12:58:40;;;;;;;;;;;7.30;99.90;;;;;;5080919;28;19935;-79
2022/11/25 13:01:20;;;;;;;;;;;7.30;99.90;;;;;;5080805;28;19939;-78
2022/11/25 13:04:01;;;;;;;;;;;7.30;99.80;;;;;;5082705;28;19928;-78
2022/11/25 13:06:39;;;;;;;;;;;7.40;99.80;;;;;;5079957;28;19939;-78
2022/11/25 13:09:12;;;;;;;;;;;7.40;99.80;;;;;;5087052;28;19928;-79
2022/11/25 13:11:55;;;;;;;;;;;7.40;99.70;;;;;;5089246;28;20387;-78
2022/11/25 13:14:24;;;;;;;;;;;7.40;99.70;;;;;;5096176;28;19935;-79
2022/11/25 13:16:51;;;;;;;;;;;7.40;99.70;;;;;;5098909;28;19928;-78
2022/11/25 13:19:19;;;;;;;;;;;7.50;99.80;;;;;;5094450;28;19939;-78
2022/11/25 13:21:59;;;;;;;;;;;7.50;99.80;;;;;;5090382;28;19928;-79
2022/11/25 13:24:30;;;;;;;;;;;7.50;99.80;;;;;;5083231;28;19947;-79
2022/11/25 13:26:56;;;;;;;;;;;7.50;99.70;;;;;;5088914;28;19932;-79
2022/11/25 13:29:42;;;;;;;;;;;7.50;99.70;;;;;;5095229;28;20614;-78
2022/11/25 13:32:25;;;;;;;;;;;7.50;99.70;;;;;;5103543;28;19935;-78
2022/11/25 13:35:28;;;;;;;;;;;7.60;99.70;;;;;;5106670;28;21351;-78
2022/11/25 13:37:55;;;;;;;;;;;7.60;99.60;;;;;;5103822;28;19932;-79
2022/11/25 13:40:31;;;;;;;;;;;7.70;99.50;;;;;;5102168;28;19928;-79
2022/11/25 13:42:59;;;;;;;;;;;7.60;99.40;;;;;;5103134;28;20020;-79
2022/11/25 13:45:27;;;;;;;;;;;7.70;99.40;;;;;;5094980;28;20026;-78
2022/11/25 13:47:54;;;;;;;;;;;7.70;99.40;;;;;;5102831;28;19935;-78
2022/11/25 13:50:23;;;;;;;;;;;7.70;99.50;;;;;;5103657;28;19939;-78
2022/11/25 13:52:57;;;;;;;;;;;7.80;99.70;;;;;;5104844;28;19927;-78
2022/11/25 13:55:26;;;;;;;;;;;7.80;99.70;;;;;;5108729;28;19928;-78
2022/11/25 13:58:01;;;;;;;;;;;7.90;99.60;;;;;;5099880;28;19931;-78
2022/11/25 14:00:43;;;;;;;;;;;7.90;99.50;;;;;;5103381;28;19939;-78
2022/11/25 14:03:24;;;;;;;;;;;7.90;99.40;;;;;;5099480;28;19932;-78
2022/11/25 14:06:02;;;;;;;;;;;8.00;99.30;;;;;;5102086;28;19927;-79
2022/11/25 14:08:33;;;;;;;;;;;8.00;99.30;;;;;;5109349;28;19943;-78
2022/11/25 14:11:14;;;;;;;;;;;8.00;99.20;;;;;;5102132;28;19943;-79
2022/11/25 14:13:49;;;;;;;;;;;8.00;99.20;;;;;;5101832;28;20302;-78
2022/11/25 14:16:23;;;;;;;;;;;8.00;99.20;;;;;;5102163;28;19931;-79
2022/11/25 14:18:55;;;;;;;;;;;8.10;99.20;;;;;;5106403;28;19935;-79
2022/11/25 14:21:37;;;;;;;;;;;8.10;99.10;;;;;;5098872;28;19928;-78
2022/11/25 14:24:11;;;;;;;;;;;8.10;99.10;;;;;;5103926;28;19928;-80
2022/11/25 14:26:39;;;;;;;;;;;8.10;99.10;;;;;;5106115;28;19954;-79
2022/11/25 14:29:12;;;;;;;;;;;8.10;99.40;;;;;;5109597;28;19985;-78
2022/11/25 14:31:41;;;;;;;;;;;8.10;99.10;;;;;;5111425;28;19928;-79
2022/11/25 14:34:12;;;;;;;;;;;8.10;99.00;;;;;;5108017;28;19932;-79
2022/11/25 14:36:42;;;;;;;;;;;8.10;99.00;;;;;;5109586;28;19931;-79
2022/11/25 14:39:10;;;;;;;;;;;8.10;99.00;;;;;;5106988;28;19927;-78
2022/11/25 14:41:38;;;;;;;;;;;8.10;99.00;;;;;;5108343;28;19950;-79
2022/11/25 14:44:06;;;;;;;;;;;8.10;99.00;;;;;;5106442;28;19923;-79
2022/11/25 14:46:33;;;;;;;;;;;8.10;99.10;;;;;;5108653;28;19934;-79
2022/11/25 14:49:01;;;;;;;;;;;8.10;99.10;;;;;;5104982;28;19932;-78
2022/11/25 14:51:32;;;;;;;;;;;8.10;99.20;;;;;;5108955;28;19931;-79
2022/11/25 14:54:00;;;;;;;;;;;8.10;99.20;;;;;;5100571;28;20441;-80